Time;durP1;ratioP1;P1;durP2;ratioP2;P2;SDS_P1;SDS_P2;PMS_P1;PMS_P2;Temp;Humidity;BMP_temperature;BMP_pressure;BME280_temperature;BME280_humidity;BME280_pressure;Samples;Min_cycle;Max_cycle;Signal;HPM_P1;HPM_P2
2022/02/17 00:01:05;;;;;;;2.80;0.20;;;;;;;10.63;100.00;97874.50;5017705;28;20048;-86
2022/02/17 00:03:33;;;;;;;2.83;0.30;;;;;;;10.59;98.95;97850.28;5019928;28;20598;-86
2022/02/17 00:06:02;;;;;;;2.25;0.40;;;;;;;10.47;100.00;97879.72;5027874;28;20739;-86
2022/02/17 00:08:30;;;;;;;2.22;0.28;;;;;;;10.35;100.00;97881.22;5006417;28;20080;-86
2022/02/17 00:10:57;;;;;;;0.50;0.30;;;;;;;10.25;100.00;97883.44;5031210;28;20050;-85
2022/02/17 00:13:24;;;;;;;0.93;0.30;;;;;;;10.18;100.00;97902.97;5008427;28;21392;-85
2022/02/17 00:15:51;;;;;;;1.58;0.47;;;;;;;10.14;100.00;97914.50;5044271;28;20088;-86
2022/02/17 00:18:21;;;;;;;1.77;0.60;;;;;;;10.19;99.90;97903.81;5042844;28;20138;-85
2022/02/17 00:20:55;;;;;;;1.98;0.60;;;;;;;10.22;99.79;97927.19;5036303;28;20056;-86
2022/02/17 00:23:26;;;;;;;1.10;0.50;;;;;;;10.32;97.48;97948.47;5019408;28;20597;-87
2022/02/17 00:25:54;;;;;;;1.48;0.60;;;;;;;10.38;97.46;97966.50;5016385;28;20055;-86
2022/02/17 00:28:22;;;;;;;1.25;0.32;;;;;;;10.39;95.72;97950.75;5042271;28;20051;-88
2022/02/17 00:30:50;;;;;;;2.03;0.50;;;;;;;10.37;93.37;97959.59;5044411;28;20488;-86
2022/02/17 00:33:20;;;;;;;0.28;0.20;;;;;;;10.37;95.55;97985.72;5039707;28;20049;-86
2022/02/17 00:35:50;;;;;;;4.38;0.52;;;;;;;10.32;95.93;97965.00;5046800;28;20130;-87
2022/02/17 00:38:17;;;;;;;3.67;0.55;;;;;;;10.23;96.87;97986.38;5009286;28;20480;-86
2022/02/17 00:40:44;;;;;;;4.13;0.60;;;;;;;10.25;95.72;97995.00;5045031;28;20083;-87
2022/02/17 00:43:11;;;;;;;1.23;0.50;;;;;;;10.28;95.75;97987.00;5038066;28;20052;-87
2022/02/17 00:45:41;;;;;;;3.13;0.55;;;;;;;10.32;94.33;97999.00;5032102;28;20071;-86
2022/02/17 00:48:09;;;;;;;7.32;1.60;;;;;;;10.33;94.19;97992.84;5055274;28;21270;-88
2022/02/17 00:50:41;;;;;;;4.47;0.65;;;;;;;10.39;91.94;98000.44;5024888;28;20158;-86
2022/02/17 00:55:50;;;;;;;2.78;0.65;;;;;;;10.45;89.42;97995.81;5017066;28;20053;-86
2022/02/17 00:58:20;;;;;;;3.75;1.00;;;;;;;10.37;87.06;97985.72;5009563;28;20793;-86
2022/02/17 01:00:47;;;;;;;5.13;1.13;;;;;;;10.30;86.25;97998.25;5025412;28;20068;-87
2022/02/17 01:03:14;;;;;;;1.65;0.68;;;;;;;10.21;85.27;97996.09;5016848;28;20385;-86
2022/02/17 01:05:43;;;;;;;4.85;0.75;;;;;;;10.15;82.54;97999.84;5032608;28;20144;-85
2022/02/17 01:08:11;;;;;;;7.75;0.95;;;;;;;10.06;81.91;98014.25;5030925;28;20076;-86
2022/02/17 01:10:40;;;;;;;4.80;1.27;;;;;;;10.01;78.60;98000.56;5020623;28;20076;-86
2022/02/17 01:13:08;;;;;;;4.55;1.02;;;;;;;9.98;77.48;97987.63;5018845;28;20561;-87
2022/02/17 01:15:39;;;;;;;8.25;1.60;;;;;;;10.01;75.26;97990.09;5042530;28;20060;-85
2022/02/17 01:18:13;;;;;;;3.70;1.10;;;;;;;9.98;74.79;97998.06;5020613;28;20056;-86
2022/02/17 01:20:44;;;;;;;1.70;0.82;;;;;;;9.92;75.36;97978.31;5017098;28;20171;-84
2022/02/17 01:23:11;;;;;;;4.13;0.85;;;;;;;9.94;75.26;97983.47;5039058;28;20041;-85
2022/02/17 01:25:38;;;;;;;10.07;1.65;;;;;;;10.02;73.86;97977.88;5033774;28;20048;-85
2022/02/17 01:28:05;;;;;;;8.75;1.20;;;;;;;10.19;72.14;97971.78;5011830;28;20102;-86
2022/02/17 01:30:32;;;;;;;8.75;1.48;;;;;;;10.27;71.10;97933.88;5016803;28;20060;-86
2022/02/17 01:32:58;;;;;;;3.17;1.25;;;;;;;10.36;69.91;97934.34;5013365;28;20490;-85
2022/02/17 01:35:25;;;;;;;7.95;1.77;;;;;;;10.38;70.52;97945.59;5033116;28;20790;-86
2022/02/17 01:37:53;;;;;;;4.05;2.08;;;;;;;10.43;69.68;97943.59;5028533;28;20053;-86
2022/02/17 01:40:20;;;;;;;3.72;0.93;;;;;;;10.45;69.31;97941.72;5058242;28;20060;-86
2022/02/17 01:42:47;;;;;;;4.65;1.48;;;;;;;10.46;69.13;97961.72;5004124;28;20044;-88
2022/02/17 01:45:15;;;;;;;5.07;1.33;;;;;;;10.45;69.56;97962.63;5011517;28;20191;-86
2022/02/17 01:47:49;;;;;;;7.78;1.10;;;;;;;10.52;68.63;97984.09;5016674;28;20135;-85
2022/02/17 01:50:17;;;;;;;4.10;1.30;;;;;;;10.50;68.59;97978.94;5001536;28;20055;-85
2022/02/17 01:52:45;;;;;;;7.38;2.45;;;;;;;10.55;68.06;97978.72;5006338;28;20057;-87
2022/02/17 01:55:13;;;;;;;6.80;1.40;;;;;;;10.63;66.19;97966.06;5010588;28;20050;-86
2022/02/17 01:57:41;;;;;;;11.10;2.15;;;;;;;10.63;66.93;97978.31;4996463;28;20049;-86
2022/02/17 02:00:09;;;;;;;5.53;1.90;;;;;;;10.56;68.65;97989.09;5047593;28;20637;-87
2022/02/17 02:02:38;;;;;;;6.20;1.65;;;;;;;10.36;70.52;97956.09;5023366;28;20057;-83
2022/02/17 02:05:05;;;;;;;7.00;1.63;;;;;;;10.10;73.22;97971.34;5020929;28;20057;-85
2022/02/17 02:07:35;;;;;;;4.95;1.35;;;;;;;10.09;69.60;97968.81;5027821;28;20064;-85
2022/02/17 02:10:02;;;;;;;9.65;1.00;;;;;;;10.12;68.27;97968.66;4999668;28;20072;-86
2022/02/17 02:12:29;;;;;;;5.88;1.23;;;;;;;10.20;65.76;97908.13;5019033;28;20045;-86
2022/02/17 02:14:58;;;;;;;4.82;1.17;;;;;;;10.32;62.75;97928.41;4992165;28;20052;-85
2022/02/17 02:17:28;;;;;;;5.22;1.65;;;;;;;10.27;63.03;97944.34;4998403;28;20099;-85
2022/02/17 02:19:57;;;;;;;8.13;1.20;;;;;;;10.21;62.44;97939.41;4996455;28;20049;-85
2022/02/17 02:22:28;;;;;;;6.53;2.13;;;;;;;10.12;62.76;97931.19;5005092;28;20077;-85
2022/02/17 02:24:58;;;;;;;5.05;1.08;;;;;;;10.17;61.28;97922.19;4996924;28;20067;-84
2022/02/17 02:27:27;;;;;;;4.65;1.40;;;;;;;10.08;62.75;97941.81;4993872;28;20063;-86
2022/02/17 02:29:54;;;;;;;5.90;1.10;;;;;;;10.03;62.72;97945.59;5027914;28;20053;-87
2022/02/17 02:32:25;;;;;;;10.02;1.58;;;;;;;9.97;63.95;97948.50;5010108;28;20045;-86
2022/02/17 02:34:55;;;;;;;7.60;1.30;;;;;;;9.84;64.08;97943.91;5013539;28;20510;-86
2022/02/17 02:37:22;;;;;;;4.70;1.23;;;;;;;9.77;64.57;97932.88;5019341;28;20069;-86
2022/02/17 02:39:49;;;;;;;7.32;1.70;;;;;;;9.73;64.89;97936.56;4999036;28;20064;-86
2022/02/17 02:42:20;;;;;;;3.13;0.95;;;;;;;9.76;65.15;97933.81;5018817;28;20056;-87
2022/02/17 02:44:47;;;;;;;4.32;1.45;;;;;;;9.81;66.08;97945.81;5027286;28;20049;-86
2022/02/17 02:47:16;;;;;;;3.53;1.50;;;;;;;9.80;66.03;97951.94;5021161;28;20148;-86
2022/02/17 02:49:45;;;;;;;9.38;1.38;;;;;;;9.85;66.08;97958.63;5023701;28;20056;-86
2022/02/17 02:52:18;;;;;;;4.00;1.42;;;;;;;9.87;65.89;97958.56;5009531;28;20063;-86
2022/02/17 02:54:44;;;;;;;6.22;1.67;;;;;;;9.94;65.71;97954.72;4998669;28;20064;-86
2022/02/17 02:57:12;;;;;;;7.75;1.35;;;;;;;10.01;65.94;97965.72;5007872;28;20132;-87
2022/02/17 02:59:45;;;;;;;7.70;1.80;;;;;;;10.01;66.30;97977.03;4995294;28;20186;-87
2022/02/17 03:02:26;;;;;;;9.65;2.22;;;;;;;10.02;66.81;97980.47;5010906;28;20045;-87
2022/02/17 03:04:57;;;;;;;6.22;1.08;;;;;;;9.96;67.56;97963.34;5011529;28;20044;-86
2022/02/17 03:07:24;;;;;;;6.70;2.03;;;;;;;9.93;68.17;97979.16;5028938;28;20043;-86
2022/02/17 03:09:54;;;;;;;13.55;1.75;;;;;;;9.85;68.69;97989.16;5030971;28;20051;-87
2022/02/17 03:12:21;;;;;;;6.32;1.15;;;;;;;9.80;69.41;98004.19;5016721;28;20041;-86
2022/02/17 03:14:48;;;;;;;4.70;2.13;;;;;;;9.74;69.73;98014.03;5009969;28;20053;-86
2022/02/17 03:17:15;;;;;;;8.88;1.70;;;;;;;9.71;67.75;98015.94;5019956;28;20122;-86
2022/02/17 03:19:43;;;;;;;8.57;2.30;;;;;;;9.74;66.26;97995.75;5003708;28;20848;-86
2022/02/17 03:22:10;;;;;;;8.77;2.00;;;;;;;9.77;64.84;97997.34;5012865;28;20059;-87
2022/02/17 03:24:38;;;;;;;6.13;1.38;;;;;;;9.73;61.47;97996.66;5021982;28;20041;-85
2022/02/17 03:27:08;;;;;;;7.90;1.17;;;;;;;9.75;59.35;98023.56;5014808;28;20131;-86
2022/02/17 03:29:37;;;;;;;10.02;2.47;;;;;;;9.68;60.00;98034.38;5046546;28;20049;-85
2022/02/17 03:32:05;;;;;;;7.18;1.38;;;;;;;9.57;60.22;98027.88;5025881;28;20392;-86
2022/02/17 03:34:36;;;;;;;8.55;2.17;;;;;;;9.47;61.06;98047.50;5014698;28;20400;-87
2022/02/17 03:37:05;;;;;;;5.22;1.23;;;;;;;9.39;61.44;98040.03;5021550;28;20052;-86
2022/02/17 03:39:33;;;;;;;6.72;1.90;;;;;;;9.32;61.40;98067.34;5016518;28;20049;-87
2022/02/17 03:42:06;;;;;;;6.30;1.40;;;;;;;9.25;61.73;98082.44;5005570;28;20052;-85
2022/02/17 03:44:34;;;;;;;7.05;1.50;;;;;;;9.22;61.20;98063.47;5014048;28;20045;-88
2022/02/17 03:47:00;;;;;;;9.82;2.03;;;;;;;9.17;61.16;98109.81;5001262;28;20048;-86
2022/02/17 03:49:27;;;;;;;9.43;1.83;;;;;;;9.12;60.32;98099.56;4984673;28;20041;-86
2022/02/17 03:51:54;;;;;;;6.90;1.63;;;;;;;9.11;59.77;98118.72;5013933;28;20045;-86
2022/02/17 03:54:21;;;;;;;6.38;1.40;;;;;;;9.13;60.01;98129.13;5015807;28;20053;-84
2022/02/17 03:56:49;;;;;;;6.40;1.95;;;;;;;9.12;60.57;98132.66;5009422;28;20087;-85
2022/02/17 03:59:16;;;;;;;8.10;1.25;;;;;;;9.04;59.86;98136.44;4997102;28;21117;-87
2022/02/17 04:01:43;;;;;;;9.07;1.58;;;;;;;9.00;60.29;98154.91;5016393;28;20052;-85
2022/02/17 04:04:15;;;;;;;5.38;1.80;;;;;;;8.96;61.02;98163.75;5013255;28;20052;-85
2022/02/17 04:06:41;;;;;;;3.08;1.30;;;;;;;8.93;60.41;98157.78;5021517;28;20060;-86
2022/02/17 04:09:08;;;;;;;9.40;1.63;;;;;;;8.87;60.72;98157.19;5018977;28;20498;-85
2022/02/17 04:11:36;;;;;;;7.78;2.03;;;;;;;8.83;60.99;98173.88;5031436;28;20060;-86
2022/02/17 04:14:06;;;;;;;11.05;1.75;;;;;;;8.77;61.67;98177.56;5025889;28;20184;-87
2022/02/17 04:16:33;;;;;;;8.70;2.03;;;;;;;8.72;61.88;98184.75;5034397;28;20055;-86
2022/02/17 04:18:59;;;;;;;8.23;2.35;;;;;;;8.69;61.07;98214.41;5020367;28;20048;-86
2022/02/17 04:21:27;;;;;;;8.48;1.95;;;;;;;8.74;60.55;98193.38;5030151;28;20044;-86
2022/02/17 04:23:53;;;;;;;10.27;1.77;;;;;;;8.84;59.55;98212.94;5018684;28;20055;-86
2022/02/17 04:26:21;;;;;;;4.97;2.00;;;;;;;8.83;59.93;98205.19;5018021;28;20053;-88
2022/02/17 04:28:49;;;;;;;8.07;1.60;;;;;;;8.77;59.70;98203.66;5014416;28;20041;-87
2022/02/17 04:31:17;;;;;;;12.90;2.60;;;;;;;8.75;58.81;98208.09;5026471;28;20863;-87
2022/02/17 04:33:45;;;;;;;8.43;1.33;;;;;;;8.76;58.92;98217.59;5007096;28;20206;-86
2022/02/17 04:36:13;;;;;;;7.88;2.22;;;;;;;8.75;59.29;98249.84;5022341;28;20810;-86
2022/02/17 04:38:40;;;;;;;6.32;1.65;;;;;;;8.74;58.87;98230.72;5022543;28;20060;-86
2022/02/17 04:43:51;;;;;;;6.38;1.50;;;;;;;8.66;58.74;98204.09;5030038;28;20052;-85
2022/02/17 04:46:18;;;;;;;6.65;1.77;;;;;;;8.61;58.48;98238.19;5006847;28;20137;-86
2022/02/17 04:48:44;;;;;;;6.32;2.20;;;;;;;8.56;58.43;98236.69;4998308;28;20041;-84
2022/02/17 04:51:14;;;;;;;4.40;1.52;;;;;;;8.48;59.18;98244.78;5005677;28;21459;-84
2022/02/17 04:53:42;;;;;;;10.20;1.38;;;;;;;8.40;59.20;98239.84;5009949;28;20448;-84
2022/02/17 04:56:09;;;;;;;10.25;1.73;;;;;;;8.30;59.93;98268.94;5009578;28;20048;-86
2022/02/17 04:58:49;;;;;;;5.25;1.65;;;;;;;8.24;60.16;98251.78;5006654;28;20059;-86
2022/02/17 05:01:16;;;;;;;9.18;1.48;;;;;;;8.25;59.94;98272.59;5027984;28;20575;-86
2022/02/17 05:03:51;;;;;;;17.40;2.47;;;;;;;8.29;59.44;98262.88;5026355;28;20041;-85
2022/02/17 05:06:18;;;;;;;12.10;1.95;;;;;;;8.25;59.51;98274.31;4996644;28;20118;-85
2022/02/17 05:08:46;;;;;;;4.18;1.40;;;;;;;8.22;59.08;98269.22;5025429;28;20045;-87
2022/02/17 05:11:13;;;;;;;8.30;2.22;;;;;;;8.21;58.25;98284.03;5001526;28;20091;-85
2022/02/17 05:13:40;;;;;;;6.38;1.60;;;;;;;8.25;58.23;98276.94;4995826;28;21376;-86
2022/02/17 05:16:07;;;;;;;7.32;1.52;;;;;;;8.24;58.17;98259.63;4988557;28;20743;-86
2022/02/17 05:18:34;;;;;;;11.40;1.60;;;;;;;8.34;57.82;98301.81;5026476;28;20037;-84
2022/02/17 05:21:05;;;;;;;11.50;2.08;;;;;;;8.35;58.08;98298.28;5020799;28;20830;-85
2022/02/17 05:23:32;;;;;;;8.48;2.17;;;;;;;8.33;58.30;98307.91;5008500;28;20045;-85
2022/02/17 05:26:00;;;;;;;10.20;1.63;;;;;;;8.31;57.96;98296.72;4993153;28;20057;-84
2022/02/17 05:28:27;;;;;;;8.82;2.85;;;;;;;8.27;57.32;98295.97;5008201;28;20146;-88
2022/02/17 05:30:53;;;;;;;8.23;2.50;;;;;;;8.22;57.77;98292.69;5024487;28;20118;-87
2022/02/17 05:33:20;;;;;;;12.18;3.03;;;;;;;8.22;57.07;98292.69;5027272;28;20049;-86
2022/02/17 05:35:48;;;;;;;12.88;1.95;;;;;;;8.21;57.46;98320.53;4997022;28;20041;-87
2022/02/17 05:38:15;;;;;;;4.28;2.08;;;;;;;8.16;58.36;98285.09;4999394;28;20049;-85
2022/02/17 05:40:42;;;;;;;12.48;2.70;;;;;;;8.11;58.11;98320.00;4991758;28;20511;-86
2022/02/17 05:43:09;;;;;;;6.10;1.60;;;;;;;8.08;57.96;98316.63;5029174;28;20048;-86
2022/02/17 05:45:36;;;;;;;12.48;3.80;;;;;;;8.05;57.52;98317.59;5007976;28;20551;-86
2022/02/17 05:48:04;;;;;;;7.50;1.80;;;;;;;8.10;56.97;98320.06;5032521;28;20048;-86
2022/02/17 05:50:30;;;;;;;8.30;1.90;;;;;;;8.09;56.78;98333.97;4998659;28;20140;-87
2022/02/17 05:52:57;;;;;;;7.97;1.40;;;;;;;8.02;57.10;98350.75;4993160;28;20515;-85
2022/02/17 05:55:25;;;;;;;6.25;2.20;;;;;;;7.99;57.95;98335.22;5017514;28;20049;-87
2022/02/17 06:01:05;;;;;;;15.48;1.60;;;;;;;7.92;57.74;98358.88;5031302;28;20056;-85
2022/02/17 06:03:33;;;;;;;10.65;1.92;;;;;;;7.91;57.17;98357.19;4991615;28;20483;-86
2022/02/17 06:06:01;;;;;;;12.95;3.35;;;;;;;7.98;56.89;98375.19;5030342;28;20048;-85
2022/02/17 06:08:27;;;;;;;12.82;1.83;;;;;;;8.05;57.08;98369.72;5016187;28;20048;-88
2022/02/17 06:10:54;;;;;;;6.80;1.67;;;;;;;8.11;56.58;98381.69;5010665;28;20049;-85
2022/02/17 06:13:21;;;;;;;6.57;1.42;;;;;;;8.16;56.35;98382.38;5009052;28;20048;-86
2022/02/17 06:15:49;;;;;;;11.20;1.88;;;;;;;8.18;56.99;98390.97;4986568;28;21009;-88
2022/02/17 06:18:17;;;;;;;14.38;1.98;;;;;;;8.17;57.28;98404.06;5024869;28;20672;-86
2022/02/17 06:20:44;;;;;;;11.70;2.45;;;;;;;8.18;57.14;98411.84;4995177;28;20048;-86
2022/02/17 06:23:11;;;;;;;6.82;1.40;;;;;;;8.16;57.48;98410.19;5000908;28;20084;-88
2022/02/17 06:25:38;;;;;;;9.13;2.00;;;;;;;8.16;57.58;98428.44;5007999;28;20057;-87
2022/02/17 06:28:05;;;;;;;13.02;1.95;;;;;;;8.17;57.27;98419.72;5025224;28;20798;-88
2022/02/17 06:30:32;;;;;;;6.95;1.45;;;;;;;8.19;57.13;98413.53;4997769;28;20071;-87
2022/02/17 06:32:59;;;;;;;16.45;2.80;;;;;;;8.20;56.99;98436.09;5008547;28;20060;-85
2022/02/17 06:35:32;;;;;;;7.90;1.40;;;;;;;8.22;57.70;98455.13;4999910;28;20049;-86
2022/02/17 06:38:00;;;;;;;11.15;1.30;;;;;;;8.20;58.06;98466.50;5009868;28;20069;-86
2022/02/17 06:40:27;;;;;;;6.65;1.67;;;;;;;8.16;58.94;98473.59;5001702;28;20899;-86
2022/02/17 06:42:54;;;;;;;15.55;2.55;;;;;;;8.16;58.55;98452.75;5011299;28;20053;-86
2022/02/17 06:45:21;;;;;;;5.68;1.45;;;;;;;8.16;59.00;98483.16;5022258;28;20052;-88
2022/02/17 06:47:48;;;;;;;10.30;2.15;;;;;;;8.17;58.65;98492.69;5020541;28;20480;-86
2022/02/17 06:50:17;;;;;;;5.28;1.40;;;;;;;8.15;57.95;98502.28;4998722;28;20053;-84
2022/02/17 06:52:43;;;;;;;7.80;1.65;;;;;;;8.16;57.96;98498.78;5023321;28;20507;-88
2022/02/17 06:55:10;;;;;;;7.57;1.65;;;;;;;8.18;57.86;98523.91;5009841;28;20049;-87
2022/02/17 06:57:39;;;;;;;12.57;2.30;;;;;;;8.21;57.25;98521.22;4994481;28;20077;-87
2022/02/17 07:00:09;;;;;;;3.45;1.30;;;;;;;8.22;57.29;98519.44;5010324;28;20045;-89
2022/02/17 07:02:36;;;;;;;9.15;2.30;;;;;;;8.18;57.09;98515.25;4997301;28;20121;-88
2022/02/17 07:05:05;;;;;;;12.45;3.47;;;;;;;8.17;57.23;98526.56;4987089;28;20053;-87
2022/02/17 07:07:35;;;;;;;6.38;1.85;;;;;;;8.16;56.86;98543.09;4995434;28;20118;-89
2022/02/17 07:10:07;;;;;;;3.60;1.35;;;;;;;8.17;56.08;98561.28;5030539;28;20654;-87
2022/02/17 07:12:34;;;;;;;7.38;2.13;;;;;;;8.17;56.38;98550.00;5020370;28;20106;-87
2022/02/17 07:15:03;;;;;;;4.13;1.52;;;;;;;8.20;55.89;98552.50;5005045;28;20045;-84
2022/02/17 07:17:30;;;;;;;9.50;2.05;;;;;;;8.20;56.49;98573.38;5033488;28;20521;-87
2022/02/17 07:19:57;;;;;;;10.43;1.50;;;;;;;8.18;56.82;98568.19;4996641;28;20045;-88
2022/02/17 07:22:25;;;;;;;13.02;2.13;;;;;;;8.15;57.19;98598.72;4993726;28;20069;-87
2022/02/17 07:24:52;;;;;;;8.02;1.27;;;;;;;8.15;57.24;98607.41;5031779;28;20056;-88
2022/02/17 07:27:19;;;;;;;10.05;2.20;;;;;;;8.13;57.12;98595.31;5003673;28;20053;-87
2022/02/17 07:29:48;;;;;;;7.45;1.58;;;;;;;8.11;57.74;98608.41;5015130;28;20052;-88
2022/02/17 07:32:18;;;;;;;6.93;0.70;;;;;;;8.08;57.29;98640.63;5037118;28;20096;-90
2022/02/17 07:34:45;;;;;;;6.43;1.27;;;;;;;8.13;57.62;98624.84;5021996;28;20221;-89
2022/02/17 07:37:16;;;;;;;8.00;1.92;;;;;;;8.11;58.09;98648.34;5017078;28;20047;-91
2022/02/17 07:39:50;;;;;;;7.72;1.38;;;;;;;8.09;58.09;98638.88;5022653;28;20070;-90
2022/02/17 07:42:17;;;;;;;3.45;1.23;;;;;;;8.10;58.06;98640.56;5017500;28;20124;-90
2022/02/17 07:44:47;;;;;;;8.55;1.75;;;;;;;8.09;57.65;98631.88;5005838;28;20052;-90
2022/02/17 07:47:15;;;;;;;9.80;1.48;;;;;;;8.09;57.16;98657.09;5004319;28;20564;-88
2022/02/17 07:49:41;;;;;;;7.65;1.52;;;;;;;8.08;57.18;98637.16;5035108;28;20072;-90
2022/02/17 07:52:11;;;;;;;5.55;1.48;;;;;;;8.08;56.99;98652.78;5029067;28;20052;-89
2022/02/17 07:54:38;;;;;;;8.35;2.13;;;;;;;8.06;56.59;98662.44;5021751;28;20734;-88
2022/02/17 07:57:05;;;;;;;4.75;1.52;;;;;;;8.07;56.27;98659.75;5020509;28;20045;-88
2022/02/17 07:59:33;;;;;;;6.15;1.42;;;;;;;8.07;56.70;98680.63;5012397;28;20053;-86
2022/02/17 08:02:00;;;;;;;10.35;1.52;;;;;;;8.10;56.73;98682.28;5015723;28;20040;-87
2022/02/17 08:04:27;;;;;;;8.40;1.33;;;;;;;8.10;56.49;98692.69;5023165;28;20488;-88
2022/02/17 08:06:55;;;;;;;10.35;1.85;;;;;;;8.06;56.50;98694.53;5000872;28;20514;-87
2022/02/17 08:09:22;;;;;;;9.73;1.23;;;;;;;8.11;56.64;98702.22;5016557;28;20085;-88
2022/02/17 08:11:53;;;;;;;6.13;1.23;;;;;;;8.13;56.56;98717.81;5024358;28;20993;-87
2022/02/17 08:14:22;;;;;;;7.22;2.42;;;;;;;8.13;56.33;98718.66;5014868;28;20085;-87
2022/02/17 08:16:52;;;;;;;10.75;2.15;;;;;;;8.17;57.09;98727.25;4976937;28;20673;-89
2022/02/17 08:19:20;;;;;;;10.05;1.52;;;;;;;8.18;56.79;98735.00;4998006;28;20057;-88
2022/02/17 08:21:48;;;;;;;8.63;1.90;;;;;;;8.22;57.30;98751.41;5002649;28;20049;-91
2022/02/17 08:27:12;;;;;;;9.25;1.33;;;;;;;8.23;57.46;98764.41;5020652;28;20045;-93
2022/02/17 08:29:42;;;;;;;6.88;1.45;;;;;;;8.21;57.85;98755.78;4996504;28;20731;-89
2022/02/17 08:32:10;;;;;;;7.28;1.40;;;;;;;8.25;57.11;98770.44;5027440;28;20052;-87
2022/02/17 08:34:44;;;;;;;12.25;2.38;;;;;;;8.32;57.10;98767.63;4992281;28;21019;-89
2022/02/17 08:37:12;;;;;;;;;;;;;;;8.32;57.33;98772.84;5017976;28;20042;-85
2022/02/17 08:39:38;;;;;;;12.02;1.40;;;;;;;8.31;58.03;98779.81;4996607;28;19928;-83
2022/02/17 08:42:05;;;;;;;15.63;1.95;;;;;;;8.26;59.04;98792.97;5006371;28;20045;-84
2022/02/17 08:44:37;;;;;;;5.68;1.80;;;;;;;8.16;58.23;98811.53;4999406;28;21246;-89
2022/02/17 08:47:07;;;;;;;7.68;1.35;;;;;;;8.15;57.66;98794.19;5010504;28;20585;-88
2022/02/17 08:49:34;;;;;;;5.72;1.48;;;;;;;8.15;58.74;98808.09;5016207;28;20040;-87
2022/02/17 08:52:07;;;;;;;12.13;2.20;;;;;;;8.14;58.78;98814.19;5036149;28;20045;-88
2022/02/17 08:54:37;;;;;;;7.88;1.48;;;;;;;8.09;58.98;98835.16;5016031;28;20045;-88
2022/02/17 08:57:07;;;;;;;8.95;2.28;;;;;;;8.11;59.37;98817.75;5005408;28;20053;-88
2022/02/17 08:59:34;;;;;;;10.05;1.40;;;;;;;8.17;58.97;98847.97;5036212;28;20045;-89
2022/02/17 09:02:08;;;;;;;7.80;1.73;;;;;;;8.27;58.57;98849.44;5036761;28;20041;-91
2022/02/17 09:04:38;;;;;;;2.40;1.08;;;;;;;8.34;57.77;98844.03;5034769;28;20045;-89
2022/02/17 09:07:56;;;;;;;;;;;;;;;;;;;;;
2022/02/17 09:10:33;;;;;;;5.10;1.90;;;;;;;8.36;57.45;98866.56;5015616;28;20051;-90
2022/02/17 09:13:01;;;;;;;5.32;1.40;;;;;;;8.23;59.12;98873.03;5048669;28;20064;-90
2022/02/17 09:15:49;;;;;;;7.35;1.70;;;;;;;8.11;60.23;98892.47;5031139;28;20055;-89
2022/02/17 09:18:45;;;;;;;9.90;1.60;;;;;;;7.86;64.53;98911.38;5054615;28;20079;-88
2022/02/17 09:21:35;;;;;;;5.47;1.63;;;;;;;7.69;66.14;98914.41;5029623;28;20130;-88
2022/02/17 09:27:02;;;;;;;9.95;2.35;;;;;;;7.31;66.26;98916.16;5010188;28;20503;-88
2022/02/17 09:29:37;;;;;;;5.07;1.65;;;;;;;7.42;65.29;98898.56;5012316;28;20118;-87
2022/02/17 09:32:10;;;;;;;9.23;1.23;;;;;;;7.54;64.88;98808.88;5003170;28;20056;-88
2022/02/17 09:34:56;;;;;;;8.48;2.30;;;;;;;7.66;62.83;98924.03;5011283;28;20049;-88
2022/02/17 09:37:45;;;;;;;10.73;1.33;;;;;;;7.92;61.13;98920.75;5019472;28;20037;-88
2022/02/17 09:40:30;;;;;;;;;;;;;;;;;;;;;
2022/02/17 09:43:19;;;;;;;9.73;2.33;;;;;;;8.33;57.17;98931.84;5032727;28;20531;-87
2022/02/17 09:46:05;;;;;;;11.38;1.92;;;;;;;8.62;57.25;98932.81;5034855;28;20053;-88
2022/02/17 09:48:40;;;;;;;10.93;1.92;;;;;;;8.78;56.87;98948.88;5044750;28;20185;-88
2022/02/17 09:51:27;;;;;;;6.95;1.75;;;;;;;8.83;56.28;98949.59;5047789;28;20049;-88
2022/02/17 09:53:59;;;;;;;6.00;1.20;;;;;;;8.83;56.33;98962.63;5032503;28;20114;-87
2022/02/17 09:56:50;;;;;;;3.92;0.93;;;;;;;8.70;58.33;98974.31;5033319;28;20076;-86
2022/02/17 09:59:25;;;;;;;9.73;1.95;;;;;;;8.59;58.52;98979.81;5035697;28;20154;-87
2022/02/17 10:02:12;;;;;;;5.38;1.55;;;;;;;8.68;58.67;98996.97;5025484;28;20060;-87
2022/02/17 10:04:56;;;;;;;4.07;1.55;;;;;;;8.67;59.32;99024.84;5051762;28;20045;-89
2022/02/17 10:07:48;;;;;;;;;;;;;;;;;;;;;
2022/02/17 10:10:31;;;;;;;8.48;1.65;;;;;;;8.04;61.96;99048.13;5015831;28;20041;-88
2022/02/17 10:13:21;;;;;;;10.90;1.50;;;;;;;7.83;63.15;99049.50;5016712;28;20044;-86
2022/02/17 10:16:06;;;;;;;5.47;1.17;;;;;;;7.52;65.62;99070.19;5033028;28;20103;-87
2022/02/17 10:18:41;;;;;;;7.72;1.73;;;;;;;7.54;67.03;99078.81;5025073;28;20107;-87
2022/02/17 10:21:31;;;;;;;5.15;1.08;;;;;;;7.34;70.32;99079.22;5049437;28;20111;-87
2022/02/17 10:25:00;;;;;;;6.93;1.35;;;;;;;6.88;72.80;99071.50;5045910;28;20048;-89
2022/02/17 10:27:51;;;;;;;7.32;1.17;;;;;;;6.91;69.88;99068.81;4921690;29;20056;-88
2022/02/17 10:30:38;;;;;;;11.65;2.83;;;;;;;7.02;68.55;99080.75;4973802;28;20075;-87
2022/02/17 10:33:52;;;;;;;11.70;2.08;;;;;;;7.25;67.12;99094.16;5030494;28;20144;-89
2022/02/17 10:36:56;;;;;;;8.23;3.45;;;;;;;7.56;63.83;99090.91;5053837;28;20072;-88
2022/02/17 10:42:24;;;;;;;9.50;1.90;;;;;;;8.07;60.01;99086.28;5022677;28;20099;-87
2022/02/17 10:45:04;;;;;;;;;;;;;;;;;;;;;
2022/02/17 10:48:18;;;;;;;5.70;1.73;;;;;;;8.35;58.49;99122.13;5021999;28;20607;-88
2022/02/17 10:51:36;;;;;;;5.03;1.48;;;;;;;8.72;58.01;99137.75;5037850;28;20091;-88
2022/02/17 10:54:27;;;;;;;8.27;2.15;;;;;;;8.93;57.75;99138.09;5011170;28;20037;-87
2022/02/17 10:57:09;;;;;;;7.68;1.45;;;;;;;8.90;57.80;99119.88;5025581;28;20746;-87
2022/02/17 11:02:29;;;;;;;10.00;1.88;;;;;;;8.91;56.52;99132.88;5025231;28;20044;-91
2022/02/17 11:05:08;;;;;;;6.32;1.75;;;;;;;8.83;56.83;99152.28;5021532;28;20518;-89
2022/02/17 11:07:43;;;;;;;10.15;1.98;;;;;;;8.59;57.67;99151.97;5039551;28;20124;-91
2022/02/17 11:10:23;;;;;;;6.75;1.80;;;;;;;8.63;58.14;99147.53;5035950;28;20144;-87
2022/02/17 11:12:50;;;;;;;10.57;1.63;;;;;;;8.62;57.79;99131.03;5032769;28;20064;-85
2022/02/17 11:15:17;;;;;;;7.05;1.80;;;;;;;8.58;57.26;99152.88;5030405;28;20049;-86
2022/02/17 11:17:43;;;;;;;7.70;2.15;;;;;;;8.61;57.67;99169.28;5019475;28;20052;-85
2022/02/17 11:20:17;;;;;;;8.57;1.92;;;;;;;8.61;57.35;99151.03;5036468;28;20057;-86
2022/02/17 11:22:47;;;;;;;20.25;3.70;;;;;;;8.55;56.67;99171.22;5022022;28;21219;-87
2022/02/17 11:25:22;;;;;;;7.97;1.50;;;;;;;8.46;57.64;99171.44;5014030;28;20960;-87
2022/02/17 11:28:11;;;;;;;5.65;1.48;;;;;;;8.29;56.36;99196.09;5050225;28;20646;-85
2022/02/17 11:30:47;;;;;;;11.55;2.53;;;;;;;8.28;55.91;99174.41;5015278;28;20041;-86
2022/02/17 11:33:39;;;;;;;21.13;2.95;;;;;;;8.38;56.94;99193.31;5033862;28;21379;-85
2022/02/17 11:36:19;;;;;;;6.88;1.55;;;;;;;8.46;56.11;99203.59;5037727;28;20049;-87
2022/02/17 11:39:19;;;;;;;13.68;2.13;;;;;;;8.59;56.15;99185.88;5035223;28;20049;-85
2022/02/17 11:41:50;;;;;;;7.90;1.25;;;;;;;8.77;54.89;99201.09;5059531;28;20057;-86
2022/02/17 11:44:23;;;;;;;9.70;1.63;;;;;;;8.94;54.28;99224.16;5038899;28;20818;-86
2022/02/17 11:47:02;;;;;;;5.17;1.23;;;;;;;8.89;53.09;99219.94;5056524;28;20171;-85
2022/02/17 11:49:40;;;;;;;6.60;1.10;;;;;;;8.81;53.50;99224.50;5032778;28;20459;-86
2022/02/17 11:52:24;;;;;;;11.93;1.35;;;;;;;8.71;54.12;99229.09;5050755;28;20057;-85
2022/02/17 11:55:13;;;;;;;8.20;1.48;;;;;;;8.67;53.14;99217.88;5027723;28;20144;-85
2022/02/17 11:57:41;;;;;;;7.30;1.15;;;;;;;8.84;53.11;99243.56;5036703;28;20045;-85
2022/02/17 12:00:20;;;;;;;6.55;2.00;;;;;;;8.87;51.28;99238.25;5012537;28;20049;-85
2022/02/17 12:02:50;;;;;;;7.00;1.10;;;;;;;8.86;51.79;99220.03;5033768;28;20044;-86
2022/02/17 12:05:21;;;;;;;3.97;1.23;;;;;;;8.67;52.61;99258.75;5046299;28;22503;-87
2022/02/17 12:07:49;;;;;;;7.50;1.55;;;;;;;8.56;53.89;99254.63;5014712;28;20053;-84
2022/02/17 12:10:35;;;;;;;16.80;1.95;;;;;;;8.49;56.83;99262.66;5047292;28;20044;-85
2022/02/17 12:13:05;;;;;;;9.93;2.60;;;;;;;8.53;57.43;99319.06;5010328;28;20045;-86
2022/02/17 12:15:32;;;;;;;3.97;1.02;;;;;;;8.56;56.23;99275.50;5031671;28;20080;-86
2022/02/17 12:17:59;;;;;;;4.28;1.00;;;;;;;8.73;54.68;99282.94;5026242;28;20064;-85
2022/02/17 12:20:30;;;;;;;8.65;2.00;;;;;;;9.05;54.06;99283.06;5033016;28;20053;-87
2022/02/17 12:23:07;;;;;;;8.60;0.95;;;;;;;9.10;53.61;99281.22;5032996;28;20051;-87
2022/02/17 12:25:36;;;;;;;6.25;1.70;;;;;;;8.87;54.11;99286.97;5026321;28;20521;-84